sensor_id;sensor_type;location;lat;lon;timestamp;P1;durP1;ratioP1;P2;durP2;ratioP2
24373;SDS011;12498;50.880;12.096;2023-08-07T00:00:33;1.70;;;1.48;;
24373;SDS011;12498;50.880;12.096;2023-08-07T00:02:59;3.47;;;1.73;;
24373;SDS011;12498;50.880;12.096;2023-08-07T00:05:25;4.63;;;1.58;;
24373;SDS011;12498;50.880;12.096;2023-08-07T00:07:51;1.55;;;1.33;;
24373;SDS011;12498;50.880;12.096;2023-08-07T00:10:16;2.92;;;1.60;;
24373;SDS011;12498;50.880;12.096;2023-08-07T00:12:42;2.60;;;1.70;;
24373;SDS011;12498;50.880;12.096;2023-08-07T00:15:08;1.80;;;1.70;;
24373;SDS011;12498;50.880;12.096;2023-08-07T00:17:35;4.63;;;1.77;;
24373;SDS011;12498;50.880;12.096;2023-08-07T00:20:01;4.95;;;1.80;;
24373;SDS011;12498;50.880;12.096;2023-08-07T00:22:27;1.88;;;1.60;;
24373;SDS011;12498;50.880;12.096;2023-08-07T00:24:52;2.08;;;1.67;;
24373;SDS011;12498;50.880;12.096;2023-08-07T00:27:18;3.28;;;1.98;;
24373;SDS011;12498;50.880;12.096;2023-08-07T00:29:44;3.15;;;1.60;;
24373;SDS011;12498;50.880;12.096;2023-08-07T00:32:10;2.35;;;1.80;;
24373;SDS011;12498;50.880;12.096;2023-08-07T00:34:35;2.53;;;1.80;;
24373;SDS011;12498;50.880;12.096;2023-08-07T00:37:01;2.47;;;1.83;;
24373;SDS011;12498;50.880;12.096;2023-08-07T00:39:27;2.60;;;1.90;;
24373;SDS011;12498;50.880;12.096;2023-08-07T00:41:53;4.88;;;1.98;;
24373;SDS011;12498;50.880;12.096;2023-08-07T00:44:19;3.25;;;1.90;;
24373;SDS011;12498;50.880;12.096;2023-08-07T00:46:45;3.08;;;2.03;;
24373;SDS011;12498;50.880;12.096;2023-08-07T00:49:11;4.20;;;3.28;;
24373;SDS011;12498;50.880;12.096;2023-08-07T00:51:38;3.60;;;2.15;;
24373;SDS011;12498;50.880;12.096;2023-08-07T00:54:05;2.45;;;1.90;;
24373;SDS011;12498;50.880;12.096;2023-08-07T00:56:32;2.80;;;1.75;;
24373;SDS011;12498;50.880;12.096;2023-08-07T00:58:58;2.88;;;2.13;;
24373;SDS011;12498;50.880;12.096;2023-08-07T01:01:25;2.75;;;1.65;;
24373;SDS011;12498;50.880;12.096;2023-08-07T01:03:51;2.42;;;1.60;;
24373;SDS011;12498;50.880;12.096;2023-08-07T01:06:17;2.35;;;1.98;;
24373;SDS011;12498;50.880;12.096;2023-08-07T01:08:42;3.88;;;1.77;;
24373;SDS011;12498;50.880;12.096;2023-08-07T01:11:18;2.22;;;1.80;;
24373;SDS011;12498;50.880;12.096;2023-08-07T01:16:34;3.00;;;2.08;;
24373;SDS011;12498;50.880;12.096;2023-08-07T01:19:03;2.72;;;1.83;;
24373;SDS011;12498;50.880;12.096;2023-08-07T01:21:33;3.25;;;1.90;;
24373;SDS011;12498;50.880;12.096;2023-08-07T01:23:59;1.90;;;1.70;;
24373;SDS011;12498;50.880;12.096;2023-08-07T01:26:25;5.53;;;1.88;;
24373;SDS011;12498;50.880;12.096;2023-08-07T01:31:31;2.45;;;1.70;;
24373;SDS011;12498;50.880;12.096;2023-08-07T01:34:06;4.90;;;1.92;;
24373;SDS011;12498;50.880;12.096;2023-08-07T01:36:35;3.08;;;1.58;;
24373;SDS011;12498;50.880;12.096;2023-08-07T01:39:03;3.35;;;1.48;;
24373;SDS011;12498;50.880;12.096;2023-08-07T01:41:31;6.03;;;2.88;;
24373;SDS011;12498;50.880;12.096;2023-08-07T01:43:58;2.78;;;2.20;;
24373;SDS011;12498;50.880;12.096;2023-08-07T01:46:24;5.82;;;2.60;;
24373;SDS011;12498;50.880;12.096;2023-08-07T01:48:50;3.00;;;2.10;;
24373;SDS011;12498;50.880;12.096;2023-08-07T01:51:15;3.78;;;1.80;;
24373;SDS011;12498;50.880;12.096;2023-08-07T01:53:41;14.80;;;10.13;;
24373;SDS011;12498;50.880;12.096;2023-08-07T01:56:07;8.23;;;5.30;;
24373;SDS011;12498;50.880;12.096;2023-08-07T01:58:33;6.22;;;4.60;;
24373;SDS011;12498;50.880;12.096;2023-08-07T02:00:59;8.45;;;5.50;;
24373;SDS011;12498;50.880;12.096;2023-08-07T02:03:24;3.42;;;2.60;;
24373;SDS011;12498;50.880;12.096;2023-08-07T02:05:50;3.47;;;1.83;;
24373;SDS011;12498;50.880;12.096;2023-08-07T02:08:16;4.13;;;2.10;;
24373;SDS011;12498;50.880;12.096;2023-08-07T02:10:42;3.22;;;1.95;;
24373;SDS011;12498;50.880;12.096;2023-08-07T02:13:07;2.22;;;1.83;;
24373;SDS011;12498;50.880;12.096;2023-08-07T02:15:33;5.97;;;2.20;;
24373;SDS011;12498;50.880;12.096;2023-08-07T02:17:58;3.33;;;2.60;;
24373;SDS011;12498;50.880;12.096;2023-08-07T02:20:24;3.92;;;2.50;;
24373;SDS011;12498;50.880;12.096;2023-08-07T02:22:50;4.22;;;2.40;;
24373;SDS011;12498;50.880;12.096;2023-08-07T02:25:15;6.13;;;2.45;;
24373;SDS011;12498;50.880;12.096;2023-08-07T02:27:41;3.55;;;2.50;;
24373;SDS011;12498;50.880;12.096;2023-08-07T02:30:07;5.70;;;2.60;;
24373;SDS011;12498;50.880;12.096;2023-08-07T02:32:33;3.50;;;2.75;;
24373;SDS011;12498;50.880;12.096;2023-08-07T02:34:59;3.60;;;2.70;;
24373;SDS011;12498;50.880;12.096;2023-08-07T02:37:24;3.35;;;2.72;;
24373;SDS011;12498;50.880;12.096;2023-08-07T02:39:50;3.58;;;2.50;;
24373;SDS011;12498;50.880;12.096;2023-08-07T02:42:16;7.22;;;2.88;;
24373;SDS011;12498;50.880;12.096;2023-08-07T02:44:42;6.13;;;3.13;;
24373;SDS011;12498;50.880;12.096;2023-08-07T02:47:07;7.18;;;2.95;;
24373;SDS011;12498;50.880;12.096;2023-08-07T02:49:33;4.65;;;2.70;;
24373;SDS011;12498;50.880;12.096;2023-08-07T02:51:59;3.40;;;2.60;;
24373;SDS011;12498;50.880;12.096;2023-08-07T02:54:25;4.18;;;2.80;;
24373;SDS011;12498;50.880;12.096;2023-08-07T02:56:50;5.65;;;2.85;;
24373;SDS011;12498;50.880;12.096;2023-08-07T02:59:16;7.13;;;2.85;;
24373;SDS011;12498;50.880;12.096;2023-08-07T03:01:43;4.18;;;2.58;;
24373;SDS011;12498;50.880;12.096;2023-08-07T03:04:09;6.50;;;2.95;;
24373;SDS011;12498;50.880;12.096;2023-08-07T03:06:35;4.75;;;2.70;;
24373;SDS011;12498;50.880;12.096;2023-08-07T03:09:00;5.18;;;2.80;;
24373;SDS011;12498;50.880;12.096;2023-08-07T03:11:26;7.03;;;2.90;;
24373;SDS011;12498;50.880;12.096;2023-08-07T03:13:52;5.90;;;2.85;;
24373;SDS011;12498;50.880;12.096;2023-08-07T03:16:18;4.97;;;3.05;;
24373;SDS011;12498;50.880;12.096;2023-08-07T03:18:43;9.80;;;2.92;;
24373;SDS011;12498;50.880;12.096;2023-08-07T03:21:09;4.22;;;2.33;;
24373;SDS011;12498;50.880;12.096;2023-08-07T03:23:35;6.18;;;2.78;;
24373;SDS011;12498;50.880;12.096;2023-08-07T03:28:33;3.65;;;2.40;;
24373;SDS011;12498;50.880;12.096;2023-08-07T03:30:59;4.32;;;2.10;;
24373;SDS011;12498;50.880;12.096;2023-08-07T03:33:25;4.60;;;2.45;;
24373;SDS011;12498;50.880;12.096;2023-08-07T03:35:51;5.78;;;1.88;;
24373;SDS011;12498;50.880;12.096;2023-08-07T03:38:17;4.38;;;2.55;;
24373;SDS011;12498;50.880;12.096;2023-08-07T03:40:43;4.72;;;2.45;;
24373;SDS011;12498;50.880;12.096;2023-08-07T03:43:08;4.00;;;2.40;;
24373;SDS011;12498;50.880;12.096;2023-08-07T03:45:34;5.50;;;2.40;;
24373;SDS011;12498;50.880;12.096;2023-08-07T03:48:00;3.55;;;2.00;;
24373;SDS011;12498;50.880;12.096;2023-08-07T03:50:25;5.50;;;1.73;;
24373;SDS011;12498;50.880;12.096;2023-08-07T03:52:51;3.22;;;1.80;;
24373;SDS011;12498;50.880;12.096;2023-08-07T03:55:17;4.78;;;2.25;;
24373;SDS011;12498;50.880;12.096;2023-08-07T03:57:43;3.72;;;1.90;;
24373;SDS011;12498;50.880;12.096;2023-08-07T04:00:09;4.22;;;2.00;;
24373;SDS011;12498;50.880;12.096;2023-08-07T04:02:35;4.53;;;1.80;;
24373;SDS011;12498;50.880;12.096;2023-08-07T04:05:01;4.97;;;2.80;;
24373;SDS011;12498;50.880;12.096;2023-08-07T04:07:27;7.50;;;2.50;;
24373;SDS011;12498;50.880;12.096;2023-08-07T04:09:53;2.60;;;1.90;;
24373;SDS011;12498;50.880;12.096;2023-08-07T04:12:19;4.53;;;1.73;;
24373;SDS011;12498;50.880;12.096;2023-08-07T04:14:45;5.80;;;1.75;;
24373;SDS011;12498;50.880;12.096;2023-08-07T04:17:10;4.57;;;1.58;;
24373;SDS011;12498;50.880;12.096;2023-08-07T04:19:36;6.80;;;1.67;;
24373;SDS011;12498;50.880;12.096;2023-08-07T04:22:02;3.80;;;1.70;;
24373;SDS011;12498;50.880;12.096;2023-08-07T04:24:27;2.92;;;1.70;;
24373;SDS011;12498;50.880;12.096;2023-08-07T04:26:53;4.57;;;1.80;;
24373;SDS011;12498;50.880;12.096;2023-08-07T04:29:19;4.07;;;1.75;;
24373;SDS011;12498;50.880;12.096;2023-08-07T04:31:44;6.38;;;1.98;;
24373;SDS011;12498;50.880;12.096;2023-08-07T04:34:10;2.70;;;1.70;;
24373;SDS011;12498;50.880;12.096;2023-08-07T04:36:37;6.55;;;2.10;;
24373;SDS011;12498;50.880;12.096;2023-08-07T04:39:03;7.90;;;4.00;;
24373;SDS011;12498;50.880;12.096;2023-08-07T04:41:28;7.88;;;3.95;;
24373;SDS011;12498;50.880;12.096;2023-08-07T04:43:54;5.30;;;1.98;;
24373;SDS011;12498;50.880;12.096;2023-08-07T04:46:19;5.55;;;1.80;;
24373;SDS011;12498;50.880;12.096;2023-08-07T04:48:45;2.28;;;1.80;;
24373;SDS011;12498;50.880;12.096;2023-08-07T04:51:12;6.40;;;3.45;;
24373;SDS011;12498;50.880;12.096;2023-08-07T04:53:38;3.72;;;1.77;;
24373;SDS011;12498;50.880;12.096;2023-08-07T04:56:03;6.95;;;3.35;;
24373;SDS011;12498;50.880;12.096;2023-08-07T04:58:29;10.93;;;5.50;;
24373;SDS011;12498;50.880;12.096;2023-08-07T05:00:55;8.32;;;2.92;;
24373;SDS011;12498;50.880;12.096;2023-08-07T05:03:22;12.55;;;6.65;;
24373;SDS011;12498;50.880;12.096;2023-08-07T05:05:47;11.80;;;6.00;;
24373;SDS011;12498;50.880;12.096;2023-08-07T05:08:13;6.20;;;3.10;;
24373;SDS011;12498;50.880;12.096;2023-08-07T05:10:38;7.07;;;3.53;;
24373;SDS011;12498;50.880;12.096;2023-08-07T05:13:04;11.20;;;6.63;;
24373;SDS011;12498;50.880;12.096;2023-08-07T05:15:29;12.85;;;7.03;;
24373;SDS011;12498;50.880;12.096;2023-08-07T05:17:56;16.95;;;9.02;;
24373;SDS011;12498;50.880;12.096;2023-08-07T05:20:21;21.15;;;10.27;;
24373;SDS011;12498;50.880;12.096;2023-08-07T05:22:47;22.08;;;11.20;;
24373;SDS011;12498;50.880;12.096;2023-08-07T05:25:13;10.25;;;4.68;;
24373;SDS011;12498;50.880;12.096;2023-08-07T05:27:43;15.18;;;6.72;;
24373;SDS011;12498;50.880;12.096;2023-08-07T05:30:09;16.38;;;6.93;;
24373;SDS011;12498;50.880;12.096;2023-08-07T05:32:36;12.15;;;5.80;;
24373;SDS011;12498;50.880;12.096;2023-08-07T05:35:05;26.83;;;9.43;;
24373;SDS011;12498;50.880;12.096;2023-08-07T05:37:31;29.77;;;9.23;;
24373;SDS011;12498;50.880;12.096;2023-08-07T05:39:57;23.00;;;7.72;;
24373;SDS011;12498;50.880;12.096;2023-08-07T05:42:23;48.33;;;13.00;;
24373;SDS011;12498;50.880;12.096;2023-08-07T05:44:49;25.95;;;6.45;;
24373;SDS011;12498;50.880;12.096;2023-08-07T05:47:15;39.97;;;8.90;;
24373;SDS011;12498;50.880;12.096;2023-08-07T05:49:40;54.03;;;11.25;;
24373;SDS011;12498;50.880;12.096;2023-08-07T05:52:06;17.23;;;4.20;;
24373;SDS011;12498;50.880;12.096;2023-08-07T05:54:32;7.70;;;3.10;;
24373;SDS011;12498;50.880;12.096;2023-08-07T05:56:58;8.50;;;4.00;;
24373;SDS011;12498;50.880;12.096;2023-08-07T05:59:23;7.82;;;3.15;;
24373;SDS011;12498;50.880;12.096;2023-08-07T06:01:49;7.68;;;2.75;;
24373;SDS011;12498;50.880;12.096;2023-08-07T06:04:16;20.52;;;9.75;;
24373;SDS011;12498;50.880;12.096;2023-08-07T06:06:41;9.45;;;4.63;;
24373;SDS011;12498;50.880;12.096;2023-08-07T06:09:07;6.07;;;3.20;;
24373;SDS011;12498;50.880;12.096;2023-08-07T06:11:33;14.93;;;6.60;;
24373;SDS011;12498;50.880;12.096;2023-08-07T06:13:59;33.22;;;8.02;;
24373;SDS011;12498;50.880;12.096;2023-08-07T06:16:24;18.10;;;4.78;;
24373;SDS011;12498;50.880;12.096;2023-08-07T06:18:50;7.05;;;2.63;;
24373;SDS011;12498;50.880;12.096;2023-08-07T06:21:15;23.80;;;5.95;;
24373;SDS011;12498;50.880;12.096;2023-08-07T06:23:41;15.57;;;3.40;;
24373;SDS011;12498;50.880;12.096;2023-08-07T06:26:07;25.23;;;5.65;;
24373;SDS011;12498;50.880;12.096;2023-08-07T06:28:33;38.15;;;8.10;;
24373;SDS011;12498;50.880;12.096;2023-08-07T06:31:05;10.75;;;4.05;;
24373;SDS011;12498;50.880;12.096;2023-08-07T06:33:32;20.55;;;5.90;;
24373;SDS011;12498;50.880;12.096;2023-08-07T06:35:58;50.17;;;10.82;;
24373;SDS011;12498;50.880;12.096;2023-08-07T06:38:24;87.60;;;17.52;;
24373;SDS011;12498;50.880;12.096;2023-08-07T06:40:50;61.10;;;11.25;;
24373;SDS011;12498;50.880;12.096;2023-08-07T06:43:16;20.73;;;4.75;;
24373;SDS011;12498;50.880;12.096;2023-08-07T06:45:41;14.65;;;3.60;;
24373;SDS011;12498;50.880;12.096;2023-08-07T06:48:07;11.15;;;2.40;;
24373;SDS011;12498;50.880;12.096;2023-08-07T06:50:32;16.80;;;3.85;;
24373;SDS011;12498;50.880;12.096;2023-08-07T06:52:58;25.67;;;4.93;;
24373;SDS011;12498;50.880;12.096;2023-08-07T06:55:24;10.85;;;2.90;;
24373;SDS011;12498;50.880;12.096;2023-08-07T06:57:50;15.07;;;3.97;;
24373;SDS011;12498;50.880;12.096;2023-08-07T07:00:16;26.15;;;6.75;;
24373;SDS011;12498;50.880;12.096;2023-08-07T07:02:42;4.20;;;1.80;;
24373;SDS011;12498;50.880;12.096;2023-08-07T07:05:07;18.50;;;4.97;;
24373;SDS011;12498;50.880;12.096;2023-08-07T07:07:33;5.93;;;2.05;;
24373;SDS011;12498;50.880;12.096;2023-08-07T07:09:59;3.97;;;1.88;;
24373;SDS011;12498;50.880;12.096;2023-08-07T07:12:28;9.30;;;2.90;;
24373;SDS011;12498;50.880;12.096;2023-08-07T07:14:54;3.65;;;1.60;;
24373;SDS011;12498;50.880;12.096;2023-08-07T07:17:20;9.60;;;2.55;;
24373;SDS011;12498;50.880;12.096;2023-08-07T07:19:46;4.63;;;1.75;;
24373;SDS011;12498;50.880;12.096;2023-08-07T07:22:11;3.75;;;2.00;;
24373;SDS011;12498;50.880;12.096;2023-08-07T07:24:37;8.20;;;2.40;;
24373;SDS011;12498;50.880;12.096;2023-08-07T07:27:03;2.58;;;1.70;;
24373;SDS011;12498;50.880;12.096;2023-08-07T07:29:29;4.05;;;1.92;;
24373;SDS011;12498;50.880;12.096;2023-08-07T07:31:55;3.63;;;1.80;;
24373;SDS011;12498;50.880;12.096;2023-08-07T07:34:21;2.03;;;1.40;;
24373;SDS011;12498;50.880;12.096;2023-08-07T07:36:47;3.03;;;1.40;;
24373;SDS011;12498;50.880;12.096;2023-08-07T07:39:13;2.00;;;1.35;;
24373;SDS011;12498;50.880;12.096;2023-08-07T07:41:39;2.88;;;1.60;;
24373;SDS011;12498;50.880;12.096;2023-08-07T07:44:04;1.88;;;1.20;;
24373;SDS011;12498;50.880;12.096;2023-08-07T07:46:30;3.05;;;1.30;;
24373;SDS011;12498;50.880;12.096;2023-08-07T07:48:57;4.85;;;2.13;;
24373;SDS011;12498;50.880;12.096;2023-08-07T07:51:24;3.20;;;1.80;;
24373;SDS011;12498;50.880;12.096;2023-08-07T07:53:49;5.38;;;1.27;;
24373;SDS011;12498;50.880;12.096;2023-08-07T07:56:15;2.00;;;1.30;;
24373;SDS011;12498;50.880;12.096;2023-08-07T07:58:41;5.00;;;2.03;;
24373;SDS011;12498;50.880;12.096;2023-08-07T08:01:07;2.22;;;1.25;;
24373;SDS011;12498;50.880;12.096;2023-08-07T08:03:33;2.08;;;1.10;;
24373;SDS011;12498;50.880;12.096;2023-08-07T08:05:59;3.95;;;1.10;;
24373;SDS011;12498;50.880;12.096;2023-08-07T08:08:24;1.00;;;0.88;;
24373;SDS011;12498;50.880;12.096;2023-08-07T08:10:51;1.45;;;0.80;;
24373;SDS011;12498;50.880;12.096;2023-08-07T08:13:17;2.17;;;0.95;;
24373;SDS011;12498;50.880;12.096;2023-08-07T08:15:43;4.00;;;1.10;;
24373;SDS011;12498;50.880;12.096;2023-08-07T08:18:09;3.15;;;1.17;;
24373;SDS011;12498;50.880;12.096;2023-08-07T08:20:36;2.15;;;1.13;;
24373;SDS011;12498;50.880;12.096;2023-08-07T08:23:02;1.42;;;1.00;;
24373;SDS011;12498;50.880;12.096;2023-08-07T08:25:28;3.53;;;1.10;;
24373;SDS011;12498;50.880;12.096;2023-08-07T08:27:53;1.17;;;0.80;;
24373;SDS011;12498;50.880;12.096;2023-08-07T08:30:19;1.60;;;1.08;;
24373;SDS011;12498;50.880;12.096;2023-08-07T08:32:45;8.38;;;2.75;;
24373;SDS011;12498;50.880;12.096;2023-08-07T08:35:11;2.75;;;1.48;;
24373;SDS011;12498;50.880;12.096;2023-08-07T08:37:37;2.33;;;1.20;;
24373;SDS011;12498;50.880;12.096;2023-08-07T08:40:02;1.38;;;1.10;;
24373;SDS011;12498;50.880;12.096;2023-08-07T08:42:28;2.10;;;1.00;;
24373;SDS011;12498;50.880;12.096;2023-08-07T08:44:55;1.67;;;1.20;;
24373;SDS011;12498;50.880;12.096;2023-08-07T08:47:22;4.93;;;1.92;;
24373;SDS011;12498;50.880;12.096;2023-08-07T08:50:07;1.75;;;1.20;;
24373;SDS011;12498;50.880;12.096;2023-08-07T08:52:35;1.88;;;1.10;;
24373;SDS011;12498;50.880;12.096;2023-08-07T08:55:03;8.02;;;3.17;;
24373;SDS011;12498;50.880;12.096;2023-08-07T08:57:29;2.45;;;1.58;;
24373;SDS011;12498;50.880;12.096;2023-08-07T08:59:58;1.70;;;1.30;;
24373;SDS011;12498;50.880;12.096;2023-08-07T09:02:27;2.78;;;1.20;;
24373;SDS011;12498;50.880;12.096;2023-08-07T09:04:52;2.65;;;1.35;;
24373;SDS011;12498;50.880;12.096;2023-08-07T09:07:18;2.55;;;1.13;;
24373;SDS011;12498;50.880;12.096;2023-08-07T09:09:45;2.78;;;0.90;;
24373;SDS011;12498;50.880;12.096;2023-08-07T09:12:20;1.17;;;0.90;;
24373;SDS011;12498;50.880;12.096;2023-08-07T09:14:56;2.00;;;1.00;;
24373;SDS011;12498;50.880;12.096;2023-08-07T09:17:23;2.83;;;0.90;;
24373;SDS011;12498;50.880;12.096;2023-08-07T09:19:52;2.67;;;1.47;;
24373;SDS011;12498;50.880;12.096;2023-08-07T09:22:18;2.22;;;1.20;;
24373;SDS011;12498;50.880;12.096;2023-08-07T09:24:44;3.67;;;2.10;;
24373;SDS011;12498;50.880;12.096;2023-08-07T09:27:09;1.60;;;1.23;;
24373;SDS011;12498;50.880;12.096;2023-08-07T09:29:35;2.25;;;1.30;;
24373;SDS011;12498;50.880;12.096;2023-08-07T09:32:22;1.77;;;0.93;;
24373;SDS011;12498;50.880;12.096;2023-08-07T09:34:49;1.58;;;0.80;;
24373;SDS011;12498;50.880;12.096;2023-08-07T09:37:15;2.13;;;0.80;;
24373;SDS011;12498;50.880;12.096;2023-08-07T09:39:40;2.22;;;0.88;;
24373;SDS011;12498;50.880;12.096;2023-08-07T09:42:13;4.97;;;1.20;;
24373;SDS011;12498;50.880;12.096;2023-08-07T09:44:40;1.63;;;0.93;;
24373;SDS011;12498;50.880;12.096;2023-08-07T09:47:16;0.93;;;0.70;;
24373;SDS011;12498;50.880;12.096;2023-08-07T09:49:43;2.60;;;1.40;;
24373;SDS011;12498;50.880;12.096;2023-08-07T09:52:10;1.45;;;0.80;;
24373;SDS011;12498;50.880;12.096;2023-08-07T09:54:38;1.85;;;1.25;;
24373;SDS011;12498;50.880;12.096;2023-08-07T09:57:04;1.55;;;1.00;;
24373;SDS011;12498;50.880;12.096;2023-08-07T09:59:33;2.85;;;0.85;;
24373;SDS011;12498;50.880;12.096;2023-08-07T10:02:02;1.88;;;0.70;;
24373;SDS011;12498;50.880;12.096;2023-08-07T10:04:29;2.10;;;0.70;;
24373;SDS011;12498;50.880;12.096;2023-08-07T10:06:56;1.83;;;0.82;;
24373;SDS011;12498;50.880;12.096;2023-08-07T10:09:22;3.97;;;1.15;;
24373;SDS011;12498;50.880;12.096;2023-08-07T10:11:49;1.85;;;0.70;;
24373;SDS011;12498;50.880;12.096;2023-08-07T10:14:15;1.42;;;0.85;;
24373;SDS011;12498;50.880;12.096;2023-08-07T10:16:41;1.10;;;0.70;;
24373;SDS011;12498;50.880;12.096;2023-08-07T10:19:08;1.17;;;0.77;;
24373;SDS011;12498;50.880;12.096;2023-08-07T10:21:40;1.20;;;0.70;;
24373;SDS011;12498;50.880;12.096;2023-08-07T10:24:08;3.28;;;0.90;;
24373;SDS011;12498;50.880;12.096;2023-08-07T10:26:42;0.98;;;0.70;;
24373;SDS011;12498;50.880;12.096;2023-08-07T10:29:10;1.80;;;0.60;;
24373;SDS011;12498;50.880;12.096;2023-08-07T10:31:39;1.20;;;0.80;;
24373;SDS011;12498;50.880;12.096;2023-08-07T10:34:07;1.75;;;0.80;;
24373;SDS011;12498;50.880;12.096;2023-08-07T10:36:34;0.90;;;0.60;;
24373;SDS011;12498;50.880;12.096;2023-08-07T10:39:10;3.42;;;1.30;;
24373;SDS011;12498;50.880;12.096;2023-08-07T10:41:38;1.40;;;0.88;;
24373;SDS011;12498;50.880;12.096;2023-08-07T10:44:05;5.72;;;1.10;;
24373;SDS011;12498;50.880;12.096;2023-08-07T10:46:46;1.85;;;1.10;;
24373;SDS011;12498;50.880;12.096;2023-08-07T10:49:29;2.65;;;1.00;;
24373;SDS011;12498;50.880;12.096;2023-08-07T10:51:57;1.52;;;0.75;;
24373;SDS011;12498;50.880;12.096;2023-08-07T10:54:23;0.60;;;0.50;;
24373;SDS011;12498;50.880;12.096;2023-08-07T10:56:53;4.47;;;1.48;;
24373;SDS011;12498;50.880;12.096;2023-08-07T10:59:24;1.35;;;0.60;;
24373;SDS011;12498;50.880;12.096;2023-08-07T11:01:51;2.08;;;0.57;;
24373;SDS011;12498;50.880;12.096;2023-08-07T11:04:17;2.70;;;0.60;;
24373;SDS011;12498;50.880;12.096;2023-08-07T11:06:44;1.17;;;0.50;;
24373;SDS011;12498;50.880;12.096;2023-08-07T11:09:12;0.93;;;0.60;;
24373;SDS011;12498;50.880;12.096;2023-08-07T11:11:47;0.90;;;0.50;;
24373;SDS011;12498;50.880;12.096;2023-08-07T11:14:14;1.35;;;0.60;;
24373;SDS011;12498;50.880;12.096;2023-08-07T11:16:41;2.90;;;1.20;;
24373;SDS011;12498;50.880;12.096;2023-08-07T11:19:07;3.75;;;1.30;;
24373;SDS011;12498;50.880;12.096;2023-08-07T11:21:34;1.85;;;1.40;;
24373;SDS011;12498;50.880;12.096;2023-08-07T11:24:01;2.28;;;0.82;;
24373;SDS011;12498;50.880;12.096;2023-08-07T11:26:27;1.80;;;0.60;;
24373;SDS011;12498;50.880;12.096;2023-08-07T11:28:55;0.85;;;0.47;;
24373;SDS011;12498;50.880;12.096;2023-08-07T11:31:22;1.48;;;0.70;;
24373;SDS011;12498;50.880;12.096;2023-08-07T11:33:54;2.05;;;0.40;;
24373;SDS011;12498;50.880;12.096;2023-08-07T11:36:20;0.80;;;0.40;;
24373;SDS011;12498;50.880;12.096;2023-08-07T11:38:46;1.40;;;0.40;;
24373;SDS011;12498;50.880;12.096;2023-08-07T11:41:13;1.27;;;0.47;;
24373;SDS011;12498;50.880;12.096;2023-08-07T11:43:40;1.40;;;0.55;;
24373;SDS011;12498;50.880;12.096;2023-08-07T11:46:07;1.17;;;0.60;;
24373;SDS011;12498;50.880;12.096;2023-08-07T11:48:35;1.75;;;0.50;;
24373;SDS011;12498;50.880;12.096;2023-08-07T11:51:03;3.55;;;0.80;;
24373;SDS011;12498;50.880;12.096;2023-08-07T11:53:29;1.25;;;0.80;;
24373;SDS011;12498;50.880;12.096;2023-08-07T11:55:58;2.20;;;0.40;;
24373;SDS011;12498;50.880;12.096;2023-08-07T11:58:25;0.60;;;0.50;;
24373;SDS011;12498;50.880;12.096;2023-08-07T12:01:12;1.63;;;0.40;;
24373;SDS011;12498;50.880;12.096;2023-08-07T12:03:49;1.38;;;0.50;;
24373;SDS011;12498;50.880;12.096;2023-08-07T12:06:15;1.00;;;0.50;;
24373;SDS011;12498;50.880;12.096;2023-08-07T12:08:41;1.00;;;0.60;;
24373;SDS011;12498;50.880;12.096;2023-08-07T12:11:11;1.00;;;0.63;;
24373;SDS011;12498;50.880;12.096;2023-08-07T12:13:38;1.17;;;0.57;;
24373;SDS011;12498;50.880;12.096;2023-08-07T12:16:05;0.50;;;0.40;;
24373;SDS011;12498;50.880;12.096;2023-08-07T12:18:34;2.95;;;0.50;;
24373;SDS011;12498;50.880;12.096;2023-08-07T12:21:03;1.40;;;0.50;;
24373;SDS011;12498;50.880;12.096;2023-08-07T12:23:32;0.65;;;0.50;;
24373;SDS011;12498;50.880;12.096;2023-08-07T12:25:58;0.68;;;0.45;;
24373;SDS011;12498;50.880;12.096;2023-08-07T12:28:24;1.98;;;0.50;;
24373;SDS011;12498;50.880;12.096;2023-08-07T12:30:50;1.65;;;0.57;;
24373;SDS011;12498;50.880;12.096;2023-08-07T12:33:17;0.80;;;0.68;;
24373;SDS011;12498;50.880;12.096;2023-08-07T12:35:43;0.70;;;0.40;;
24373;SDS011;12498;50.880;12.096;2023-08-07T12:38:09;0.85;;;0.40;;
24373;SDS011;12498;50.880;12.096;2023-08-07T12:40:36;0.63;;;0.40;;
24373;SDS011;12498;50.880;12.096;2023-08-07T12:43:02;2.85;;;0.40;;
24373;SDS011;12498;50.880;12.096;2023-08-07T12:45:31;2.83;;;0.60;;
24373;SDS011;12498;50.880;12.096;2023-08-07T12:47:57;0.75;;;0.50;;
24373;SDS011;12498;50.880;12.096;2023-08-07T12:50:23;1.33;;;0.60;;
24373;SDS011;12498;50.880;12.096;2023-08-07T12:52:49;1.95;;;0.70;;
24373;SDS011;12498;50.880;12.096;2023-08-07T12:55:14;1.27;;;0.80;;
24373;SDS011;12498;50.880;12.096;2023-08-07T12:57:43;0.82;;;0.57;;
24373;SDS011;12498;50.880;12.096;2023-08-07T13:00:10;2.45;;;0.60;;
24373;SDS011;12498;50.880;12.096;2023-08-07T13:02:38;1.48;;;0.60;;
24373;SDS011;12498;50.880;12.096;2023-08-07T13:05:05;1.58;;;0.60;;
24373;SDS011;12498;50.880;12.096;2023-08-07T13:07:31;1.67;;;0.73;;
24373;SDS011;12498;50.880;12.096;2023-08-07T13:09:56;2.28;;;1.20;;
24373;SDS011;12498;50.880;12.096;2023-08-07T13:12:22;1.13;;;0.60;;
24373;SDS011;12498;50.880;12.096;2023-08-07T13:14:48;2.05;;;1.10;;
24373;SDS011;12498;50.880;12.096;2023-08-07T13:17:13;2.75;;;0.82;;
24373;SDS011;12498;50.880;12.096;2023-08-07T13:19:39;1.83;;;0.80;;
24373;SDS011;12498;50.880;12.096;2023-08-07T13:22:06;2.60;;;0.93;;
24373;SDS011;12498;50.880;12.096;2023-08-07T13:24:32;2.38;;;0.90;;
24373;SDS011;12498;50.880;12.096;2023-08-07T13:26:58;1.98;;;0.90;;
24373;SDS011;12498;50.880;12.096;2023-08-07T13:29:24;2.67;;;0.68;;
24373;SDS011;12498;50.880;12.096;2023-08-07T13:31:51;2.17;;;0.80;;
24373;SDS011;12498;50.880;12.096;2023-08-07T13:34:17;2.55;;;1.00;;
24373;SDS011;12498;50.880;12.096;2023-08-07T13:36:42;2.88;;;0.70;;
24373;SDS011;12498;50.880;12.096;2023-08-07T13:39:08;1.58;;;0.88;;
24373;SDS011;12498;50.880;12.096;2023-08-07T13:41:34;3.13;;;0.75;;
24373;SDS011;12498;50.880;12.096;2023-08-07T13:43:59;4.07;;;1.52;;
24373;SDS011;12498;50.880;12.096;2023-08-07T13:46:25;1.63;;;0.70;;
24373;SDS011;12498;50.880;12.096;2023-08-07T13:48:51;1.70;;;1.27;;
24373;SDS011;12498;50.880;12.096;2023-08-07T13:51:17;1.35;;;0.70;;
24373;SDS011;12498;50.880;12.096;2023-08-07T13:53:43;1.52;;;0.68;;
24373;SDS011;12498;50.880;12.096;2023-08-07T13:56:10;4.65;;;0.80;;
24373;SDS011;12498;50.880;12.096;2023-08-07T13:58:40;1.40;;;0.80;;
24373;SDS011;12498;50.880;12.096;2023-08-07T14:01:09;1.92;;;0.80;;
24373;SDS011;12498;50.880;12.096;2023-08-07T14:03:35;1.27;;;0.70;;
24373;SDS011;12498;50.880;12.096;2023-08-07T14:06:01;1.02;;;0.75;;
24373;SDS011;12498;50.880;12.096;2023-08-07T14:08:27;2.60;;;0.70;;
24373;SDS011;12498;50.880;12.096;2023-08-07T14:10:53;1.27;;;0.60;;
24373;SDS011;12498;50.880;12.096;2023-08-07T14:13:19;1.55;;;1.05;;
24373;SDS011;12498;50.880;12.096;2023-08-07T14:15:44;1.88;;;1.27;;
24373;SDS011;12498;50.880;12.096;2023-08-07T14:18:10;2.92;;;1.70;;
24373;SDS011;12498;50.880;12.096;2023-08-07T14:20:38;3.42;;;1.25;;
24373;SDS011;12498;50.880;12.096;2023-08-07T14:23:03;6.07;;;3.63;;
24373;SDS011;12498;50.880;12.096;2023-08-07T14:25:29;2.70;;;0.95;;
24373;SDS011;12498;50.880;12.096;2023-08-07T14:27:55;0.95;;;0.70;;
24373;SDS011;12498;50.880;12.096;2023-08-07T14:30:24;1.67;;;0.80;;
24373;SDS011;12498;50.880;12.096;2023-08-07T14:32:49;1.75;;;0.70;;
24373;SDS011;12498;50.880;12.096;2023-08-07T14:35:15;4.93;;;0.80;;
24373;SDS011;12498;50.880;12.096;2023-08-07T14:37:41;1.70;;;0.80;;